sensor_id;sensor_type;location;lat;lon;timestamp;P1;durP1;ratioP1;P2;durP2;ratioP2
26594;SDS011;14238;49.496;8.154;2022-09-02T00:01:10;6.30;;;5.90;;
26594;SDS011;14238;49.496;8.154;2022-09-02T00:03:40;6.93;;;6.43;;
26594;SDS011;14238;49.496;8.154;2022-09-02T00:06:06;5.83;;;5.50;;
26594;SDS011;14238;49.496;8.154;2022-09-02T00:08:32;6.13;;;5.73;;
26594;SDS011;14238;49.496;8.154;2022-09-02T00:10:58;6.10;;;5.60;;
26594;SDS011;14238;49.496;8.154;2022-09-02T00:13:25;6.07;;;5.67;;
26594;SDS011;14238;49.496;8.154;2022-09-02T00:15:52;5.93;;;5.63;;
26594;SDS011;14238;49.496;8.154;2022-09-02T00:18:18;6.33;;;5.93;;
26594;SDS011;14238;49.496;8.154;2022-09-02T00:20:44;5.10;;;4.70;;
26594;SDS011;14238;49.496;8.154;2022-09-02T00:23:11;6.07;;;5.77;;
26594;SDS011;14238;49.496;8.154;2022-09-02T00:25:38;6.13;;;5.70;;
26594;SDS011;14238;49.496;8.154;2022-09-02T00:28:04;6.23;;;5.83;;
26594;SDS011;14238;49.496;8.154;2022-09-02T00:30:30;6.13;;;5.60;;
26594;SDS011;14238;49.496;8.154;2022-09-02T00:32:57;6.60;;;6.20;;
26594;SDS011;14238;49.496;8.154;2022-09-02T00:35:23;6.07;;;5.67;;
26594;SDS011;14238;49.496;8.154;2022-09-02T00:37:49;5.90;;;5.50;;
26594;SDS011;14238;49.496;8.154;2022-09-02T00:40:15;7.00;;;6.60;;
26594;SDS011;14238;49.496;8.154;2022-09-02T00:42:41;6.00;;;5.63;;
26594;SDS011;14238;49.496;8.154;2022-09-02T00:45:07;6.80;;;6.30;;
26594;SDS011;14238;49.496;8.154;2022-09-02T00:47:34;5.93;;;5.63;;
26594;SDS011;14238;49.496;8.154;2022-09-02T00:50:00;6.20;;;5.80;;
26594;SDS011;14238;49.496;8.154;2022-09-02T00:52:34;6.83;;;6.33;;
26594;SDS011;14238;49.496;8.154;2022-09-02T00:55:17;6.60;;;6.00;;
26594;SDS011;14238;49.496;8.154;2022-09-02T00:57:45;6.00;;;5.70;;
26594;SDS011;14238;49.496;8.154;2022-09-02T01:00:23;6.43;;;6.03;;
26594;SDS011;14238;49.496;8.154;2022-09-02T01:02:57;6.73;;;6.27;;
26594;SDS011;14238;49.496;8.154;2022-09-02T01:05:27;5.73;;;5.23;;
26594;SDS011;14238;49.496;8.154;2022-09-02T01:07:55;7.10;;;6.60;;
26594;SDS011;14238;49.496;8.154;2022-09-02T01:10:23;6.87;;;6.37;;
26594;SDS011;14238;49.496;8.154;2022-09-02T01:12:55;6.40;;;6.00;;
26594;SDS011;14238;49.496;8.154;2022-09-02T01:15:21;6.90;;;6.50;;
26594;SDS011;14238;49.496;8.154;2022-09-02T01:17:48;6.17;;;5.77;;
26594;SDS011;14238;49.496;8.154;2022-09-02T01:20:16;7.30;;;6.80;;
26594;SDS011;14238;49.496;8.154;2022-09-02T01:22:45;6.73;;;6.33;;
26594;SDS011;14238;49.496;8.154;2022-09-02T01:25:13;6.80;;;6.40;;
26594;SDS011;14238;49.496;8.154;2022-09-02T01:27:41;7.10;;;6.70;;
26594;SDS011;14238;49.496;8.154;2022-09-02T01:30:08;6.70;;;6.30;;
26594;SDS011;14238;49.496;8.154;2022-09-02T01:32:36;7.00;;;6.60;;
26594;SDS011;14238;49.496;8.154;2022-09-02T01:35:01;6.87;;;6.43;;
26594;SDS011;14238;49.496;8.154;2022-09-02T01:37:27;7.40;;;6.90;;
26594;SDS011;14238;49.496;8.154;2022-09-02T01:39:53;6.50;;;6.10;;
26594;SDS011;14238;49.496;8.154;2022-09-02T01:42:21;6.80;;;6.30;;
26594;SDS011;14238;49.496;8.154;2022-09-02T01:44:46;7.73;;;7.23;;
26594;SDS011;14238;49.496;8.154;2022-09-02T01:47:13;7.53;;;6.93;;
26594;SDS011;14238;49.496;8.154;2022-09-02T01:49:40;7.40;;;6.90;;
26594;SDS011;14238;49.496;8.154;2022-09-02T01:52:06;7.03;;;6.63;;
26594;SDS011;14238;49.496;8.154;2022-09-02T01:54:32;7.80;;;7.10;;
26594;SDS011;14238;49.496;8.154;2022-09-02T01:56:57;7.43;;;6.93;;
26594;SDS011;14238;49.496;8.154;2022-09-02T01:59:23;7.27;;;6.60;;
26594;SDS011;14238;49.496;8.154;2022-09-02T02:01:49;7.00;;;6.57;;
26594;SDS011;14238;49.496;8.154;2022-09-02T02:04:14;7.90;;;7.30;;
26594;SDS011;14238;49.496;8.154;2022-09-02T02:06:41;7.07;;;6.67;;
26594;SDS011;14238;49.496;8.154;2022-09-02T02:09:08;7.70;;;7.20;;
26594;SDS011;14238;49.496;8.154;2022-09-02T02:11:35;6.63;;;6.23;;
26594;SDS011;14238;49.496;8.154;2022-09-02T02:14:00;6.40;;;6.00;;
26594;SDS011;14238;49.496;8.154;2022-09-02T02:16:26;7.17;;;6.67;;
26594;SDS011;14238;49.496;8.154;2022-09-02T02:18:52;7.00;;;6.60;;
26594;SDS011;14238;49.496;8.154;2022-09-02T02:21:18;6.90;;;6.50;;
26594;SDS011;14238;49.496;8.154;2022-09-02T02:23:43;7.10;;;6.60;;
26594;SDS011;14238;49.496;8.154;2022-09-02T02:26:09;7.20;;;6.80;;
26594;SDS011;14238;49.496;8.154;2022-09-02T02:28:35;7.80;;;7.30;;
26594;SDS011;14238;49.496;8.154;2022-09-02T02:31:01;8.03;;;7.33;;
26594;SDS011;14238;49.496;8.154;2022-09-02T02:33:27;6.77;;;6.37;;
26594;SDS011;14238;49.496;8.154;2022-09-02T02:35:53;7.03;;;6.53;;
26594;SDS011;14238;49.496;8.154;2022-09-02T02:38:19;6.60;;;6.20;;
26594;SDS011;14238;49.496;8.154;2022-09-02T02:40:45;6.70;;;6.30;;
26594;SDS011;14238;49.496;8.154;2022-09-02T02:43:11;6.50;;;5.97;;
26594;SDS011;14238;49.496;8.154;2022-09-02T02:45:36;7.00;;;6.60;;
26594;SDS011;14238;49.496;8.154;2022-09-02T02:48:03;8.07;;;7.47;;
26594;SDS011;14238;49.496;8.154;2022-09-02T02:50:29;7.50;;;7.00;;
26594;SDS011;14238;49.496;8.154;2022-09-02T02:52:54;6.80;;;6.40;;
26594;SDS011;14238;49.496;8.154;2022-09-02T02:55:21;6.90;;;6.50;;
26594;SDS011;14238;49.496;8.154;2022-09-02T02:57:48;6.43;;;6.03;;
26594;SDS011;14238;49.496;8.154;2022-09-02T03:00:16;7.80;;;7.20;;
26594;SDS011;14238;49.496;8.154;2022-09-02T03:02:44;7.00;;;6.50;;
26594;SDS011;14238;49.496;8.154;2022-09-02T03:05:10;7.63;;;7.13;;
26594;SDS011;14238;49.496;8.154;2022-09-02T03:07:36;7.40;;;6.90;;
26594;SDS011;14238;49.496;8.154;2022-09-02T03:10:03;7.73;;;7.23;;
26594;SDS011;14238;49.496;8.154;2022-09-02T03:12:32;6.97;;;6.47;;
26594;SDS011;14238;49.496;8.154;2022-09-02T03:14:58;7.97;;;7.13;;
26594;SDS011;14238;49.496;8.154;2022-09-02T03:17:24;6.70;;;6.30;;
26594;SDS011;14238;49.496;8.154;2022-09-02T03:19:49;7.70;;;7.20;;
26594;SDS011;14238;49.496;8.154;2022-09-02T03:22:15;7.33;;;6.90;;
26594;SDS011;14238;49.496;8.154;2022-09-02T03:24:41;7.43;;;6.93;;
26594;SDS011;14238;49.496;8.154;2022-09-02T03:27:06;6.87;;;6.47;;
26594;SDS011;14238;49.496;8.154;2022-09-02T03:29:32;7.30;;;6.80;;
26594;SDS011;14238;49.496;8.154;2022-09-02T03:31:57;7.20;;;6.70;;
26594;SDS011;14238;49.496;8.154;2022-09-02T03:34:24;6.87;;;6.40;;
26594;SDS011;14238;49.496;8.154;2022-09-02T03:36:50;6.70;;;6.20;;
26594;SDS011;14238;49.496;8.154;2022-09-02T03:39:15;7.40;;;6.97;;
26594;SDS011;14238;49.496;8.154;2022-09-02T03:41:41;7.17;;;6.70;;
26594;SDS011;14238;49.496;8.154;2022-09-02T03:44:07;6.97;;;6.50;;
26594;SDS011;14238;49.496;8.154;2022-09-02T03:46:32;7.40;;;6.90;;
26594;SDS011;14238;49.496;8.154;2022-09-02T03:48:59;6.47;;;6.07;;
26594;SDS011;14238;49.496;8.154;2022-09-02T03:51:25;7.00;;;6.60;;
26594;SDS011;14238;49.496;8.154;2022-09-02T03:53:51;6.70;;;6.30;;
26594;SDS011;14238;49.496;8.154;2022-09-02T03:56:17;7.10;;;6.63;;
26594;SDS011;14238;49.496;8.154;2022-09-02T03:58:43;6.13;;;5.83;;
26594;SDS011;14238;49.496;8.154;2022-09-02T04:01:14;6.63;;;6.23;;
26594;SDS011;14238;49.496;8.154;2022-09-02T04:03:41;6.10;;;5.80;;
26594;SDS011;14238;49.496;8.154;2022-09-02T04:06:11;7.27;;;6.80;;
26594;SDS011;14238;49.496;8.154;2022-09-02T04:08:39;6.90;;;6.40;;
26594;SDS011;14238;49.496;8.154;2022-09-02T04:11:09;6.20;;;5.83;;
26594;SDS011;14238;49.496;8.154;2022-09-02T04:13:38;6.77;;;6.37;;
26594;SDS011;14238;49.496;8.154;2022-09-02T04:16:08;7.20;;;6.30;;
26594;SDS011;14238;49.496;8.154;2022-09-02T04:18:36;7.13;;;6.63;;
26594;SDS011;14238;49.496;8.154;2022-09-02T04:21:02;6.50;;;6.10;;
26594;SDS011;14238;49.496;8.154;2022-09-02T04:23:28;6.20;;;5.90;;
26594;SDS011;14238;49.496;8.154;2022-09-02T04:25:54;6.20;;;5.70;;
26594;SDS011;14238;49.496;8.154;2022-09-02T04:28:20;7.17;;;6.67;;
26594;SDS011;14238;49.496;8.154;2022-09-02T04:30:46;7.17;;;6.77;;
26594;SDS011;14238;49.496;8.154;2022-09-02T04:33:12;6.50;;;6.10;;
26594;SDS011;14238;49.496;8.154;2022-09-02T04:35:39;8.00;;;6.57;;
26594;SDS011;14238;49.496;8.154;2022-09-02T04:38:06;6.80;;;6.30;;
26594;SDS011;14238;49.496;8.154;2022-09-02T04:40:31;6.80;;;6.40;;
26594;SDS011;14238;49.496;8.154;2022-09-02T04:42:57;6.07;;;5.67;;
26594;SDS011;14238;49.496;8.154;2022-09-02T04:45:23;6.80;;;6.30;;
26594;SDS011;14238;49.496;8.154;2022-09-02T04:47:48;7.10;;;6.60;;
26594;SDS011;14238;49.496;8.154;2022-09-02T04:50:14;6.43;;;6.03;;
26594;SDS011;14238;49.496;8.154;2022-09-02T04:52:39;7.33;;;6.83;;
26594;SDS011;14238;49.496;8.154;2022-09-02T04:55:05;6.07;;;5.70;;
26594;SDS011;14238;49.496;8.154;2022-09-02T04:57:31;6.70;;;6.30;;
26594;SDS011;14238;49.496;8.154;2022-09-02T04:59:57;6.83;;;6.33;;
26594;SDS011;14238;49.496;8.154;2022-09-02T05:02:23;7.10;;;6.60;;
26594;SDS011;14238;49.496;8.154;2022-09-02T05:04:49;6.33;;;5.93;;
26594;SDS011;14238;49.496;8.154;2022-09-02T05:07:16;6.23;;;5.80;;
26594;SDS011;14238;49.496;8.154;2022-09-02T05:09:41;5.87;;;5.47;;
26594;SDS011;14238;49.496;8.154;2022-09-02T05:12:08;6.50;;;6.10;;
26594;SDS011;14238;49.496;8.154;2022-09-02T05:14:33;5.60;;;5.30;;
26594;SDS011;14238;49.496;8.154;2022-09-02T05:17:00;6.37;;;5.97;;
26594;SDS011;14238;49.496;8.154;2022-09-02T05:19:26;6.30;;;5.90;;
26594;SDS011;14238;49.496;8.154;2022-09-02T05:21:52;6.50;;;6.00;;
26594;SDS011;14238;49.496;8.154;2022-09-02T05:24:23;6.83;;;6.23;;
26594;SDS011;14238;49.496;8.154;2022-09-02T05:26:49;6.00;;;5.70;;
26594;SDS011;14238;49.496;8.154;2022-09-02T05:29:16;5.60;;;5.20;;
26594;SDS011;14238;49.496;8.154;2022-09-02T05:31:46;7.80;;;6.40;;
26594;SDS011;14238;49.496;8.154;2022-09-02T05:34:13;5.60;;;5.20;;
26594;SDS011;14238;49.496;8.154;2022-09-02T05:36:38;5.90;;;5.50;;
26594;SDS011;14238;49.496;8.154;2022-09-02T05:39:04;6.50;;;6.00;;
26594;SDS011;14238;49.496;8.154;2022-09-02T05:41:30;6.50;;;6.00;;
26594;SDS011;14238;49.496;8.154;2022-09-02T05:43:57;6.10;;;5.70;;
26594;SDS011;14238;49.496;8.154;2022-09-02T05:46:25;5.43;;;5.03;;
26594;SDS011;14238;49.496;8.154;2022-09-02T05:48:52;6.20;;;5.80;;
26594;SDS011;14238;49.496;8.154;2022-09-02T05:51:32;6.13;;;5.73;;
26594;SDS011;14238;49.496;8.154;2022-09-02T05:54:05;6.37;;;5.83;;
26594;SDS011;14238;49.496;8.154;2022-09-02T05:56:33;6.67;;;6.27;;
26594;SDS011;14238;49.496;8.154;2022-09-02T05:58:58;7.13;;;6.70;;
26594;SDS011;14238;49.496;8.154;2022-09-02T06:01:24;6.90;;;6.40;;
26594;SDS011;14238;49.496;8.154;2022-09-02T06:03:50;6.50;;;6.10;;
26594;SDS011;14238;49.496;8.154;2022-09-02T06:06:16;5.57;;;5.27;;
26594;SDS011;14238;49.496;8.154;2022-09-02T06:08:42;6.60;;;6.00;;
26594;SDS011;14238;49.496;8.154;2022-09-02T06:11:09;6.57;;;6.17;;
26594;SDS011;14238;49.496;8.154;2022-09-02T06:13:36;6.47;;;6.00;;
26594;SDS011;14238;49.496;8.154;2022-09-02T06:16:04;7.50;;;6.80;;
26594;SDS011;14238;49.496;8.154;2022-09-02T06:18:33;6.03;;;5.63;;
26594;SDS011;14238;49.496;8.154;2022-09-02T06:20:59;6.80;;;6.40;;
26594;SDS011;14238;49.496;8.154;2022-09-02T06:23:25;7.40;;;6.90;;
26594;SDS011;14238;49.496;8.154;2022-09-02T06:25:51;6.40;;;6.00;;
26594;SDS011;14238;49.496;8.154;2022-09-02T06:28:16;6.40;;;6.00;;
26594;SDS011;14238;49.496;8.154;2022-09-02T06:30:43;6.27;;;5.87;;
26594;SDS011;14238;49.496;8.154;2022-09-02T06:33:09;6.20;;;5.90;;
26594;SDS011;14238;49.496;8.154;2022-09-02T06:35:39;6.13;;;5.73;;
26594;SDS011;14238;49.496;8.154;2022-09-02T06:38:07;6.30;;;5.90;;
26594;SDS011;14238;49.496;8.154;2022-09-02T06:40:34;4.97;;;4.70;;
26594;SDS011;14238;49.496;8.154;2022-09-02T06:43:01;6.87;;;6.27;;
26594;SDS011;14238;49.496;8.154;2022-09-02T06:45:27;5.60;;;5.20;;
26594;SDS011;14238;49.496;8.154;2022-09-02T06:47:53;5.77;;;5.23;;
26594;SDS011;14238;49.496;8.154;2022-09-02T06:50:19;6.73;;;6.27;;
26594;SDS011;14238;49.496;8.154;2022-09-02T06:52:45;5.50;;;5.10;;
26594;SDS011;14238;49.496;8.154;2022-09-02T06:55:10;5.47;;;5.07;;
26594;SDS011;14238;49.496;8.154;2022-09-02T06:57:37;5.60;;;5.13;;
26594;SDS011;14238;49.496;8.154;2022-09-02T07:00:04;5.10;;;4.63;;
26594;SDS011;14238;49.496;8.154;2022-09-02T07:02:31;5.30;;;4.80;;
26594;SDS011;14238;49.496;8.154;2022-09-02T07:04:57;4.67;;;4.37;;
26594;SDS011;14238;49.496;8.154;2022-09-02T07:07:35;4.30;;;4.00;;
26594;SDS011;14238;49.496;8.154;2022-09-02T07:10:03;4.50;;;4.20;;
26594;SDS011;14238;49.496;8.154;2022-09-02T07:12:30;4.87;;;4.57;;
26594;SDS011;14238;49.496;8.154;2022-09-02T07:14:58;4.60;;;4.30;;
26594;SDS011;14238;49.496;8.154;2022-09-02T07:17:24;4.13;;;3.90;;
26594;SDS011;14238;49.496;8.154;2022-09-02T07:19:50;4.90;;;4.50;;
26594;SDS011;14238;49.496;8.154;2022-09-02T07:22:16;4.57;;;4.17;;
26594;SDS011;14238;49.496;8.154;2022-09-02T07:24:41;4.40;;;4.00;;
26594;SDS011;14238;49.496;8.154;2022-09-02T07:27:07;3.97;;;3.77;;
26594;SDS011;14238;49.496;8.154;2022-09-02T07:29:33;4.53;;;4.23;;
26594;SDS011;14238;49.496;8.154;2022-09-02T07:32:01;4.53;;;4.03;;
26594;SDS011;14238;49.496;8.154;2022-09-02T07:34:26;5.67;;;5.10;;
26594;SDS011;14238;49.496;8.154;2022-09-02T07:36:53;4.07;;;3.87;;
26594;SDS011;14238;49.496;8.154;2022-09-02T07:39:18;5.67;;;3.70;;
26594;SDS011;14238;49.496;8.154;2022-09-02T07:41:45;5.40;;;4.30;;
26594;SDS011;14238;49.496;8.154;2022-09-02T07:44:13;3.70;;;3.50;;
26594;SDS011;14238;49.496;8.154;2022-09-02T07:46:39;4.10;;;3.80;;
26594;SDS011;14238;49.496;8.154;2022-09-02T07:49:06;3.77;;;3.47;;
26594;SDS011;14238;49.496;8.154;2022-09-02T07:51:34;3.93;;;3.63;;
26594;SDS011;14238;49.496;8.154;2022-09-02T07:54:02;3.90;;;3.70;;
26594;SDS011;14238;49.496;8.154;2022-09-02T07:56:29;4.10;;;3.80;;
26594;SDS011;14238;49.496;8.154;2022-09-02T07:58:55;3.60;;;3.40;;
26594;SDS011;14238;49.496;8.154;2022-09-02T08:01:21;3.63;;;3.43;;
26594;SDS011;14238;49.496;8.154;2022-09-02T08:03:46;4.00;;;3.77;;
26594;SDS011;14238;49.496;8.154;2022-09-02T08:06:12;4.07;;;3.73;;
26594;SDS011;14238;49.496;8.154;2022-09-02T08:08:38;3.70;;;3.40;;
26594;SDS011;14238;49.496;8.154;2022-09-02T08:11:04;3.30;;;3.10;;
26594;SDS011;14238;49.496;8.154;2022-09-02T08:13:31;3.47;;;3.27;;
26594;SDS011;14238;49.496;8.154;2022-09-02T08:15:57;4.37;;;3.50;;
26594;SDS011;14238;49.496;8.154;2022-09-02T08:18:22;3.53;;;3.33;;
26594;SDS011;14238;49.496;8.154;2022-09-02T08:20:48;3.73;;;3.50;;
26594;SDS011;14238;49.496;8.154;2022-09-02T08:23:14;5.13;;;3.30;;
26594;SDS011;14238;49.496;8.154;2022-09-02T08:25:40;3.90;;;3.70;;
26594;SDS011;14238;49.496;8.154;2022-09-02T08:28:07;4.00;;;3.70;;
26594;SDS011;14238;49.496;8.154;2022-09-02T08:30:32;3.77;;;3.47;;
26594;SDS011;14238;49.496;8.154;2022-09-02T08:32:58;3.60;;;3.40;;
26594;SDS011;14238;49.496;8.154;2022-09-02T08:35:24;3.90;;;3.60;;
26594;SDS011;14238;49.496;8.154;2022-09-02T08:37:50;3.50;;;3.20;;
26594;SDS011;14238;49.496;8.154;2022-09-02T08:40:17;3.70;;;3.50;;
26594;SDS011;14238;49.496;8.154;2022-09-02T08:45:20;3.10;;;2.90;;
26594;SDS011;14238;49.496;8.154;2022-09-02T08:48:14;5.87;;;3.60;;
26594;SDS011;14238;49.496;8.154;2022-09-02T08:50:46;3.57;;;3.33;;
26594;SDS011;14238;49.496;8.154;2022-09-02T08:53:18;4.50;;;4.10;;
26594;SDS011;14238;49.496;8.154;2022-09-02T08:55:59;4.17;;;3.87;;
26594;SDS011;14238;49.496;8.154;2022-09-02T08:58:28;3.60;;;3.40;;
26594;SDS011;14238;49.496;8.154;2022-09-02T09:01:49;4.70;;;3.67;;
26594;SDS011;14238;49.496;8.154;2022-09-02T09:04:19;3.77;;;3.40;;
26594;SDS011;14238;49.496;8.154;2022-09-02T09:09:44;5.03;;;3.50;;
26594;SDS011;14238;49.496;8.154;2022-09-02T09:12:45;4.07;;;3.77;;
26594;SDS011;14238;49.496;8.154;2022-09-02T09:18:15;3.20;;;3.10;;
26594;SDS011;14238;49.496;8.154;2022-09-02T09:20:43;2.97;;;2.87;;
26594;SDS011;14238;49.496;8.154;2022-09-02T09:26:13;3.13;;;2.90;;
26594;SDS011;14238;49.496;8.154;2022-09-02T09:28:42;2.90;;;2.70;;
26594;SDS011;14238;49.496;8.154;2022-09-02T09:31:10;2.70;;;2.53;;
26594;SDS011;14238;49.496;8.154;2022-09-02T09:33:38;3.00;;;2.80;;
26594;SDS011;14238;49.496;8.154;2022-09-02T09:36:05;2.20;;;2.10;;
26594;SDS011;14238;49.496;8.154;2022-09-02T09:38:31;2.87;;;2.60;;
26594;SDS011;14238;49.496;8.154;2022-09-02T09:41:16;2.90;;;2.70;;
26594;SDS011;14238;49.496;8.154;2022-09-02T09:43:44;2.20;;;2.10;;
26594;SDS011;14238;49.496;8.154;2022-09-02T09:46:26;2.27;;;2.00;;
26594;SDS011;14238;49.496;8.154;2022-09-02T09:48:54;2.20;;;2.10;;
26594;SDS011;14238;49.496;8.154;2022-09-02T09:51:20;2.90;;;2.50;;
26594;SDS011;14238;49.496;8.154;2022-09-02T09:53:46;2.07;;;2.00;;
26594;SDS011;14238;49.496;8.154;2022-09-02T10:03:47;2.13;;;2.03;;
26594;SDS011;14238;49.496;8.154;2022-09-02T10:08:54;3.47;;;2.27;;
26594;SDS011;14238;49.496;8.154;2022-09-02T10:11:23;2.23;;;2.03;;
26594;SDS011;14238;49.496;8.154;2022-09-02T10:13:57;1.80;;;1.70;;
26594;SDS011;14238;49.496;8.154;2022-09-02T10:19:20;2.13;;;1.53;;
26594;SDS011;14238;49.496;8.154;2022-09-02T10:22:21;1.63;;;1.57;;
26594;SDS011;14238;49.496;8.154;2022-09-02T10:25:16;1.90;;;1.80;;
26594;SDS011;14238;49.496;8.154;2022-09-02T10:30:21;1.50;;;1.50;;
26594;SDS011;14238;49.496;8.154;2022-09-02T10:32:53;1.50;;;1.50;;
26594;SDS011;14238;49.496;8.154;2022-09-02T10:35:42;2.73;;;1.80;;
26594;SDS011;14238;49.496;8.154;2022-09-02T10:38:35;1.23;;;1.23;;
26594;SDS011;14238;49.496;8.154;2022-09-02T10:41:19;2.57;;;1.37;;
26594;SDS011;14238;49.496;8.154;2022-09-02T10:44:23;1.80;;;1.70;;
26594;SDS011;14238;49.496;8.154;2022-09-02T10:47:09;1.37;;;1.37;;
26594;SDS011;14238;49.496;8.154;2022-09-02T11:00:20;1.60;;;1.50;;
26594;SDS011;14238;49.496;8.154;2022-09-02T11:05:21;1.67;;;1.60;;
26594;SDS011;14238;49.496;8.154;2022-09-02T11:08:02;1.80;;;1.77;;
26594;SDS011;14238;49.496;8.154;2022-09-02T11:10:35;1.73;;;1.60;;
26594;SDS011;14238;49.496;8.154;2022-09-02T11:13:13;1.37;;;1.37;;
26594;SDS011;14238;49.496;8.154;2022-09-02T11:21:47;2.13;;;1.60;;
26594;SDS011;14238;49.496;8.154;2022-09-02T11:24:32;1.90;;;1.43;;
26594;SDS011;14238;49.496;8.154;2022-09-02T11:27:08;3.07;;;1.50;;
26594;SDS011;14238;49.496;8.154;2022-09-02T11:30:04;1.53;;;1.43;;
26594;SDS011;14238;49.496;8.154;2022-09-02T11:32:41;1.83;;;1.63;;
26594;SDS011;14238;49.496;8.154;2022-09-02T11:35:25;1.80;;;1.20;;
26594;SDS011;14238;49.496;8.154;2022-09-02T11:37:57;1.70;;;1.47;;
26594;SDS011;14238;49.496;8.154;2022-09-02T11:40:35;1.90;;;1.80;;
26594;SDS011;14238;49.496;8.154;2022-09-02T11:46:13;1.50;;;1.40;;
26594;SDS011;14238;49.496;8.154;2022-09-02T11:52:05;1.83;;;1.43;;
26594;SDS011;14238;49.496;8.154;2022-09-02T11:55:20;1.67;;;1.57;;
26594;SDS011;14238;49.496;8.154;2022-09-02T11:57:55;1.53;;;1.40;;
26594;SDS011;14238;49.496;8.154;2022-09-02T12:02:53;1.70;;;1.60;;
26594;SDS011;14238;49.496;8.154;2022-09-02T12:07:53;1.40;;;1.40;;
26594;SDS011;14238;49.496;8.154;2022-09-02T12:13:09;1.87;;;1.47;;
26594;SDS011;14238;49.496;8.154;2022-09-02T12:15:36;1.53;;;1.43;;
26594;SDS011;14238;49.496;8.154;2022-09-02T12:18:05;1.57;;;1.47;;
26594;SDS011;14238;49.496;8.154;2022-09-02T12:23:02;1.50;;;1.40;;
26594;SDS011;14238;49.496;8.154;2022-09-02T12:28:16;1.20;;;1.20;;
26594;SDS011;14238;49.496;8.154;2022-09-02T12:33:45;2.57;;;1.53;;
26594;SDS011;14238;49.496;8.154;2022-09-02T12:41:55;1.40;;;1.40;;
26594;SDS011;14238;49.496;8.154;2022-09-02T12:47:05;1.77;;;1.63;;
26594;SDS011;14238;49.496;8.154;2022-09-02T12:49:59;2.23;;;1.50;;
26594;SDS011;14238;49.496;8.154;2022-09-02T12:55:57;1.77;;;1.67;;
26594;SDS011;14238;49.496;8.154;2022-09-02T12:58:25;1.40;;;1.30;;
26594;SDS011;14238;49.496;8.154;2022-09-02T13:01:00;2.00;;;1.47;;
26594;SDS011;14238;49.496;8.154;2022-09-02T13:03:48;1.90;;;1.53;;
26594;SDS011;14238;49.496;8.154;2022-09-02T13:15:11;1.60;;;1.57;;
26594;SDS011;14238;49.496;8.154;2022-09-02T13:17:46;2.03;;;1.77;;
26594;SDS011;14238;49.496;8.154;2022-09-02T13:26:28;1.87;;;1.60;;
26594;SDS011;14238;49.496;8.154;2022-09-02T13:34:41;1.80;;;1.70;;
26594;SDS011;14238;49.496;8.154;2022-09-02T13:39:54;2.73;;;1.50;;
26594;SDS011;14238;49.496;8.154;2022-09-02T13:42:22;4.00;;;1.33;;
26594;SDS011;14238;49.496;8.154;2022-09-02T13:44:48;1.80;;;1.70;;
26594;SDS011;14238;49.496;8.154;2022-09-02T13:47:17;2.37;;;1.40;;
26594;SDS011;14238;49.496;8.154;2022-09-02T13:49:47;1.60;;;1.50;;
26594;SDS011;14238;49.496;8.154;2022-09-02T13:52:19;1.40;;;1.30;;
26594;SDS011;14238;49.496;8.154;2022-09-02T13:54:47;2.37;;;1.90;;
26594;SDS011;14238;49.496;8.154;2022-09-02T13:57:21;1.40;;;1.30;;
26594;SDS011;14238;49.496;8.154;2022-09-02T13:59:50;1.50;;;1.40;;
26594;SDS011;14238;49.496;8.154;2022-09-02T14:02:22;1.53;;;1.30;;
26594;SDS011;14238;49.496;8.154;2022-09-02T14:07:46;1.20;;;1.10;;
26594;SDS011;14238;49.496;8.154;2022-09-02T14:10:15;4.17;;;1.50;;
26594;SDS011;14238;49.496;8.154;2022-09-02T14:12:43;1.50;;;1.40;;
26594;SDS011;14238;49.496;8.154;2022-09-02T14:15:11;1.90;;;1.47;;
26594;SDS011;14238;49.496;8.154;2022-09-02T14:17:39;1.87;;;1.77;;
26594;SDS011;14238;49.496;8.154;2022-09-02T14:22:33;1.70;;;1.37;;
26594;SDS011;14238;49.496;8.154;2022-09-02T14:24:59;5.00;;;1.63;;
26594;SDS011;14238;49.496;8.154;2022-09-02T14:27:33;1.70;;;1.60;;
26594;SDS011;14238;49.496;8.154;2022-09-02T14:29:58;5.70;;;1.40;;
26594;SDS011;14238;49.496;8.154;2022-09-02T14:32:24;1.60;;;1.50;;
26594;SDS011;14238;49.496;8.154;2022-09-02T14:37:56;1.60;;;1.50;;
26594;SDS011;14238;49.496;8.154;2022-09-02T14:40:38;1.20;;;1.20;;
26594;SDS011;14238;49.496;8.154;2022-09-02T14:43:13;1.20;;;1.20;;
26594;SDS011;14238;49.496;8.154;2022-09-02T14:45:48;1.70;;;1.60;;
26594;SDS011;14238;49.496;8.154;2022-09-02T14:48:18;1.73;;;1.63;;
26594;SDS011;14238;49.496;8.154;2022-09-02T14:50:55;1.57;;;1.47;;
26594;SDS011;14238;49.496;8.154;2022-09-02T14:53:26;1.50;;;1.40;;
26594;SDS011;14238;49.496;8.154;2022-09-02T14:55:52;1.30;;;1.30;;
26594;SDS011;14238;49.496;8.154;2022-09-02T14:58:20;1.13;;;1.10;;
26594;SDS011;14238;49.496;8.154;2022-09-02T15:00:47;3.70;;;1.23;;
26594;SDS011;14238;49.496;8.154;2022-09-02T15:03:16;1.60;;;1.40;;
26594;SDS011;14238;49.496;8.154;2022-09-02T15:05:42;1.50;;;1.40;;
26594;SDS011;14238;49.496;8.154;2022-09-02T15:08:08;1.97;;;1.50;;
26594;SDS011;14238;49.496;8.154;2022-09-02T15:10:35;1.20;;;1.10;;
26594;SDS011;14238;49.496;8.154;2022-09-02T15:13:03;1.37;;;1.27;;
26594;SDS011;14238;49.496;8.154;2022-09-02T15:15:28;3.27;;;1.10;;
26594;SDS011;14238;49.496;8.154;2022-09-02T15:17:54;1.20;;;1.20;;
26594;SDS011;14238;49.496;8.154;2022-09-02T15:20:20;2.40;;;1.40;;
26594;SDS011;14238;49.496;8.154;2022-09-02T15:22:46;2.30;;;1.60;;
26594;SDS011;14238;49.496;8.154;2022-09-02T15:25:12;1.30;;;1.20;;
26594;SDS011;14238;49.496;8.154;2022-09-02T15:27:37;1.40;;;1.30;;
26594;SDS011;14238;49.496;8.154;2022-09-02T15:30:04;1.53;;;1.47;;
26594;SDS011;14238;49.496;8.154;2022-09-02T15:32:31;2.33;;;1.53;;
26594;SDS011;14238;49.496;8.154;2022-09-02T15:34:56;2.73;;;1.30;;
26594;SDS011;14238;49.496;8.154;2022-09-02T15:37:22;1.67;;;1.30;;
26594;SDS011;14238;49.496;8.154;2022-09-02T15:39:48;2.23;;;1.30;;
26594;SDS011;14238;49.496;8.154;2022-09-02T15:42:14;1.33;;;1.23;;
26594;SDS011;14238;49.496;8.154;2022-09-02T15:44:42;2.93;;;1.23;;
26594;SDS011;14238;49.496;8.154;2022-09-02T15:47:08;2.53;;;1.57;;
26594;SDS011;14238;49.496;8.154;2022-09-02T15:49:33;1.73;;;1.37;;
26594;SDS011;14238;49.496;8.154;2022-09-02T15:51:59;1.10;;;1.10;;
26594;SDS011;14238;49.496;8.154;2022-09-02T15:54:25;1.87;;;1.67;;
26594;SDS011;14238;49.496;8.154;2022-09-02T15:56:54;2.00;;;1.40;;
26594;SDS011;14238;49.496;8.154;2022-09-02T15:59:22;1.83;;;1.73;;
26594;SDS011;14238;49.496;8.154;2022-09-02T16:01:49;4.33;;;1.87;;
26594;SDS011;14238;49.496;8.154;2022-09-02T16:04:16;1.33;;;1.30;;
26594;SDS011;14238;49.496;8.154;2022-09-02T16:06:43;2.70;;;1.30;;
26594;SDS011;14238;49.496;8.154;2022-09-02T16:09:12;1.50;;;1.40;;
26594;SDS011;14238;49.496;8.154;2022-09-02T16:11:39;1.63;;;1.50;;
26594;SDS011;14238;49.496;8.154;2022-09-02T16:14:07;2.60;;;1.30;;
26594;SDS011;14238;49.496;8.154;2022-09-02T16:16:33;1.53;;;1.43;;
26594;SDS011;14238;49.496;8.154;2022-09-02T16:18:59;1.60;;;1.50;;
26594;SDS011;14238;49.496;8.154;2022-09-02T16:21:25;1.60;;;1.50;;
26594;SDS011;14238;49.496;8.154;2022-09-02T16:23:51;2.77;;;1.67;;
26594;SDS011;14238;49.496;8.154;2022-09-02T16:26:21;2.00;;;1.20;;
26594;SDS011;14238;49.496;8.154;2022-09-02T16:28:53;2.50;;;1.67;;
26594;SDS011;14238;49.496;8.154;2022-09-02T16:31:28;1.27;;;1.20;;
26594;SDS011;14238;49.496;8.154;2022-09-02T16:33:56;1.20;;;1.10;;
26594;SDS011;14238;49.496;8.154;2022-09-02T16:36:26;1.20;;;1.20;;
26594;SDS011;14238;49.496;8.154;2022-09-02T16:38:53;2.70;;;1.63;;
26594;SDS011;14238;49.496;8.154;2022-09-02T16:41:25;1.80;;;1.33;;
26594;SDS011;14238;49.496;8.154;2022-09-02T16:43:53;1.10;;;1.10;;
26594;SDS011;14238;49.496;8.154;2022-09-02T16:46:20;1.20;;;1.20;;
26594;SDS011;14238;49.496;8.154;2022-09-02T16:48:47;1.27;;;1.27;;
26594;SDS011;14238;49.496;8.154;2022-09-02T16:51:13;1.20;;;1.20;;